sensor_id;sensor_type;location;lat;lon;timestamp;P1;durP1;ratioP1;P2;durP2;ratioP2
4873;SDS011;2451;49.970;9.068;2022-07-29T00:02:13;6.68;;;2.70;;
4873;SDS011;2451;49.970;9.068;2022-07-29T00:04:39;6.20;;;2.78;;
4873;SDS011;2451;49.970;9.068;2022-07-29T00:07:04;7.30;;;2.97;;
4873;SDS011;2451;49.970;9.068;2022-07-29T00:09:30;5.22;;;2.67;;
4873;SDS011;2451;49.970;9.068;2022-07-29T00:11:58;8.52;;;3.30;;
4873;SDS011;2451;49.970;9.068;2022-07-29T00:14:25;13.77;;;4.00;;
4873;SDS011;2451;49.970;9.068;2022-07-29T00:16:51;7.95;;;4.20;;
4873;SDS011;2451;49.970;9.068;2022-07-29T00:19:16;7.18;;;3.65;;
4873;SDS011;2451;49.970;9.068;2022-07-29T00:21:42;6.07;;;3.08;;
4873;SDS011;2451;49.970;9.068;2022-07-29T00:24:07;6.90;;;3.03;;
4873;SDS011;2451;49.970;9.068;2022-07-29T00:26:33;5.55;;;2.70;;
4873;SDS011;2451;49.970;9.068;2022-07-29T00:28:59;5.63;;;2.80;;
4873;SDS011;2451;49.970;9.068;2022-07-29T00:31:25;6.97;;;2.83;;
4873;SDS011;2451;49.970;9.068;2022-07-29T00:33:51;6.18;;;2.88;;
4873;SDS011;2451;49.970;9.068;2022-07-29T00:36:17;5.93;;;2.65;;
4873;SDS011;2451;49.970;9.068;2022-07-29T00:38:43;7.35;;;2.72;;
4873;SDS011;2451;49.970;9.068;2022-07-29T00:41:10;5.07;;;2.90;;
4873;SDS011;2451;49.970;9.068;2022-07-29T00:43:36;6.65;;;3.00;;
4873;SDS011;2451;49.970;9.068;2022-07-29T00:46:02;7.20;;;2.60;;
4873;SDS011;2451;49.970;9.068;2022-07-29T00:48:27;6.50;;;2.80;;
4873;SDS011;2451;49.970;9.068;2022-07-29T00:50:53;6.30;;;2.70;;
4873;SDS011;2451;49.970;9.068;2022-07-29T00:53:19;7.43;;;2.80;;
4873;SDS011;2451;49.970;9.068;2022-07-29T00:55:46;5.72;;;2.53;;
4873;SDS011;2451;49.970;9.068;2022-07-29T00:58:12;6.60;;;2.72;;
4873;SDS011;2451;49.970;9.068;2022-07-29T01:00:41;7.32;;;2.60;;
4873;SDS011;2451;49.970;9.068;2022-07-29T01:03:07;6.47;;;2.58;;
4873;SDS011;2451;49.970;9.068;2022-07-29T01:05:33;5.88;;;2.45;;
4873;SDS011;2451;49.970;9.068;2022-07-29T01:07:59;6.32;;;2.63;;
4873;SDS011;2451;49.970;9.068;2022-07-29T01:10:26;6.40;;;2.72;;
4873;SDS011;2451;49.970;9.068;2022-07-29T01:12:53;4.53;;;2.75;;
4873;SDS011;2451;49.970;9.068;2022-07-29T01:15:22;6.63;;;3.10;;
4873;SDS011;2451;49.970;9.068;2022-07-29T01:23:28;6.78;;;3.17;;
4873;SDS011;2451;49.970;9.068;2022-07-29T01:31:43;6.97;;;3.05;;
4873;SDS011;2451;49.970;9.068;2022-07-29T01:34:21;5.32;;;2.95;;
4873;SDS011;2451;49.970;9.068;2022-07-29T01:40:04;6.97;;;3.45;;
4873;SDS011;2451;49.970;9.068;2022-07-29T01:42:43;5.75;;;3.30;;
4873;SDS011;2451;49.970;9.068;2022-07-29T01:47:46;8.35;;;3.38;;
4873;SDS011;2451;49.970;9.068;2022-07-29T01:50:14;8.70;;;3.45;;
4873;SDS011;2451;49.970;9.068;2022-07-29T01:52:45;7.47;;;3.10;;
4873;SDS011;2451;49.970;9.068;2022-07-29T01:55:16;4.65;;;2.63;;
4873;SDS011;2451;49.970;9.068;2022-07-29T01:57:46;5.10;;;3.10;;
4873;SDS011;2451;49.970;9.068;2022-07-29T02:00:13;10.00;;;3.20;;
4873;SDS011;2451;49.970;9.068;2022-07-29T02:02:40;7.05;;;3.05;;
4873;SDS011;2451;49.970;9.068;2022-07-29T02:05:09;6.15;;;2.70;;
4873;SDS011;2451;49.970;9.068;2022-07-29T02:07:37;6.18;;;2.97;;
4873;SDS011;2451;49.970;9.068;2022-07-29T02:10:04;5.68;;;2.95;;
4873;SDS011;2451;49.970;9.068;2022-07-29T02:12:32;6.35;;;2.92;;
4873;SDS011;2451;49.970;9.068;2022-07-29T02:15:00;6.70;;;2.88;;
4873;SDS011;2451;49.970;9.068;2022-07-29T02:17:31;8.75;;;3.00;;
4873;SDS011;2451;49.970;9.068;2022-07-29T02:20:00;7.93;;;3.10;;
4873;SDS011;2451;49.970;9.068;2022-07-29T02:22:28;4.60;;;2.70;;
4873;SDS011;2451;49.970;9.068;2022-07-29T02:24:56;7.28;;;3.17;;
4873;SDS011;2451;49.970;9.068;2022-07-29T02:27:23;7.30;;;3.17;;
4873;SDS011;2451;49.970;9.068;2022-07-29T02:29:52;6.82;;;3.25;;
4873;SDS011;2451;49.970;9.068;2022-07-29T02:32:18;5.35;;;2.90;;
4873;SDS011;2451;49.970;9.068;2022-07-29T02:34:46;7.13;;;3.22;;
4873;SDS011;2451;49.970;9.068;2022-07-29T02:37:13;6.88;;;3.10;;
4873;SDS011;2451;49.970;9.068;2022-07-29T02:39:42;7.07;;;2.83;;
4873;SDS011;2451;49.970;9.068;2022-07-29T02:42:10;5.72;;;3.17;;
4873;SDS011;2451;49.970;9.068;2022-07-29T02:44:38;6.25;;;2.90;;
4873;SDS011;2451;49.970;9.068;2022-07-29T02:47:10;5.35;;;3.00;;
4873;SDS011;2451;49.970;9.068;2022-07-29T02:50:04;7.68;;;2.83;;
4873;SDS011;2451;49.970;9.068;2022-07-29T02:55:30;6.75;;;3.28;;
4873;SDS011;2451;49.970;9.068;2022-07-29T02:58:00;7.00;;;3.35;;
4873;SDS011;2451;49.970;9.068;2022-07-29T03:02:55;6.15;;;2.75;;
4873;SDS011;2451;49.970;9.068;2022-07-29T03:05:23;5.10;;;3.05;;
4873;SDS011;2451;49.970;9.068;2022-07-29T03:07:51;5.80;;;3.35;;
4873;SDS011;2451;49.970;9.068;2022-07-29T03:10:20;6.47;;;3.30;;
4873;SDS011;2451;49.970;9.068;2022-07-29T03:12:47;7.88;;;3.25;;
4873;SDS011;2451;49.970;9.068;2022-07-29T03:15:13;4.75;;;2.95;;
4873;SDS011;2451;49.970;9.068;2022-07-29T03:17:39;5.82;;;3.03;;
4873;SDS011;2451;49.970;9.068;2022-07-29T03:20:06;7.43;;;3.10;;
4873;SDS011;2451;49.970;9.068;2022-07-29T03:22:33;6.53;;;2.95;;
4873;SDS011;2451;49.970;9.068;2022-07-29T03:25:08;7.63;;;3.03;;
4873;SDS011;2451;49.970;9.068;2022-07-29T03:27:35;7.47;;;3.50;;
4873;SDS011;2451;49.970;9.068;2022-07-29T03:30:00;8.98;;;3.20;;
4873;SDS011;2451;49.970;9.068;2022-07-29T03:32:26;9.07;;;3.22;;
4873;SDS011;2451;49.970;9.068;2022-07-29T03:34:51;9.88;;;3.20;;
4873;SDS011;2451;49.970;9.068;2022-07-29T03:37:17;5.57;;;3.20;;
4873;SDS011;2451;49.970;9.068;2022-07-29T03:39:43;5.07;;;2.97;;
4873;SDS011;2451;49.970;9.068;2022-07-29T03:42:11;5.97;;;3.00;;
4873;SDS011;2451;49.970;9.068;2022-07-29T03:44:40;6.43;;;3.10;;
4873;SDS011;2451;49.970;9.068;2022-07-29T03:47:08;8.73;;;3.05;;
4873;SDS011;2451;49.970;9.068;2022-07-29T03:49:36;6.82;;;3.00;;
4873;SDS011;2451;49.970;9.068;2022-07-29T03:52:02;5.28;;;3.13;;
4873;SDS011;2451;49.970;9.068;2022-07-29T03:54:28;10.45;;;3.30;;
4873;SDS011;2451;49.970;9.068;2022-07-29T03:56:54;8.55;;;3.42;;
4873;SDS011;2451;49.970;9.068;2022-07-29T03:59:24;9.98;;;3.60;;
4873;SDS011;2451;49.970;9.068;2022-07-29T04:01:50;9.23;;;3.70;;
4873;SDS011;2451;49.970;9.068;2022-07-29T04:04:16;6.25;;;3.40;;
4873;SDS011;2451;49.970;9.068;2022-07-29T04:06:43;6.97;;;3.67;;
4873;SDS011;2451;49.970;9.068;2022-07-29T04:09:10;5.78;;;4.03;;
4873;SDS011;2451;49.970;9.068;2022-07-29T04:11:36;6.43;;;3.63;;
4873;SDS011;2451;49.970;9.068;2022-07-29T04:14:04;8.27;;;3.42;;
4873;SDS011;2451;49.970;9.068;2022-07-29T04:16:30;8.75;;;3.50;;
4873;SDS011;2451;49.970;9.068;2022-07-29T04:18:55;6.63;;;3.60;;
4873;SDS011;2451;49.970;9.068;2022-07-29T04:21:21;7.53;;;3.72;;
4873;SDS011;2451;49.970;9.068;2022-07-29T04:23:46;6.65;;;3.38;;
4873;SDS011;2451;49.970;9.068;2022-07-29T04:26:15;7.68;;;3.60;;
4873;SDS011;2451;49.970;9.068;2022-07-29T04:31:09;6.18;;;3.35;;
4873;SDS011;2451;49.970;9.068;2022-07-29T04:33:36;8.73;;;3.92;;
4873;SDS011;2451;49.970;9.068;2022-07-29T04:36:02;7.07;;;3.80;;
4873;SDS011;2451;49.970;9.068;2022-07-29T04:38:28;7.95;;;3.90;;
4873;SDS011;2451;49.970;9.068;2022-07-29T04:40:53;8.50;;;3.92;;
4873;SDS011;2451;49.970;9.068;2022-07-29T04:43:19;7.10;;;3.20;;
4873;SDS011;2451;49.970;9.068;2022-07-29T04:45:44;11.85;;;3.83;;
4873;SDS011;2451;49.970;9.068;2022-07-29T04:48:10;12.25;;;3.50;;
4873;SDS011;2451;49.970;9.068;2022-07-29T04:50:39;6.10;;;3.50;;
4873;SDS011;2451;49.970;9.068;2022-07-29T04:53:05;10.25;;;3.50;;
4873;SDS011;2451;49.970;9.068;2022-07-29T04:55:31;5.70;;;3.25;;
4873;SDS011;2451;49.970;9.068;2022-07-29T04:57:57;8.38;;;3.65;;
4873;SDS011;2451;49.970;9.068;2022-07-29T05:00:22;14.88;;;4.32;;
4873;SDS011;2451;49.970;9.068;2022-07-29T05:02:48;7.03;;;3.45;;
4873;SDS011;2451;49.970;9.068;2022-07-29T05:05:14;5.95;;;3.53;;
4873;SDS011;2451;49.970;9.068;2022-07-29T05:07:39;6.05;;;3.40;;
4873;SDS011;2451;49.970;9.068;2022-07-29T05:10:05;8.13;;;3.53;;
4873;SDS011;2451;49.970;9.068;2022-07-29T05:12:31;8.18;;;3.60;;
4873;SDS011;2451;49.970;9.068;2022-07-29T05:14:57;7.45;;;3.47;;
4873;SDS011;2451;49.970;9.068;2022-07-29T05:17:22;8.10;;;4.10;;
4873;SDS011;2451;49.970;9.068;2022-07-29T05:19:48;10.50;;;4.35;;
4873;SDS011;2451;49.970;9.068;2022-07-29T05:22:16;9.50;;;3.67;;
4873;SDS011;2451;49.970;9.068;2022-07-29T05:24:42;7.70;;;3.70;;
4873;SDS011;2451;49.970;9.068;2022-07-29T05:27:08;8.00;;;3.60;;
4873;SDS011;2451;49.970;9.068;2022-07-29T05:29:34;9.48;;;4.05;;
4873;SDS011;2451;49.970;9.068;2022-07-29T05:32:00;10.55;;;3.72;;
4873;SDS011;2451;49.970;9.068;2022-07-29T05:34:25;8.90;;;4.00;;
4873;SDS011;2451;49.970;9.068;2022-07-29T05:36:51;7.47;;;3.90;;
4873;SDS011;2451;49.970;9.068;2022-07-29T05:39:16;6.82;;;3.63;;
4873;SDS011;2451;49.970;9.068;2022-07-29T05:41:42;9.98;;;3.95;;
4873;SDS011;2451;49.970;9.068;2022-07-29T05:44:07;7.18;;;3.72;;
4873;SDS011;2451;49.970;9.068;2022-07-29T05:46:33;9.07;;;3.80;;
4873;SDS011;2451;49.970;9.068;2022-07-29T05:48:59;9.73;;;3.70;;
4873;SDS011;2451;49.970;9.068;2022-07-29T05:51:24;11.63;;;4.10;;
4873;SDS011;2451;49.970;9.068;2022-07-29T05:53:50;11.05;;;4.00;;
4873;SDS011;2451;49.970;9.068;2022-07-29T05:56:15;11.25;;;3.58;;
4873;SDS011;2451;49.970;9.068;2022-07-29T05:58:41;9.30;;;3.45;;
4873;SDS011;2451;49.970;9.068;2022-07-29T06:01:06;10.65;;;3.60;;
4873;SDS011;2451;49.970;9.068;2022-07-29T06:03:32;9.95;;;3.55;;
4873;SDS011;2451;49.970;9.068;2022-07-29T06:05:57;8.00;;;3.45;;
4873;SDS011;2451;49.970;9.068;2022-07-29T06:08:23;8.60;;;3.70;;
4873;SDS011;2451;49.970;9.068;2022-07-29T06:10:48;7.90;;;3.83;;
4873;SDS011;2451;49.970;9.068;2022-07-29T06:13:14;9.55;;;4.10;;
4873;SDS011;2451;49.970;9.068;2022-07-29T06:15:40;11.60;;;4.20;;
4873;SDS011;2451;49.970;9.068;2022-07-29T06:18:07;8.40;;;3.85;;
4873;SDS011;2451;49.970;9.068;2022-07-29T06:20:34;8.80;;;3.53;;
4873;SDS011;2451;49.970;9.068;2022-07-29T06:23:02;9.88;;;3.85;;
4873;SDS011;2451;49.970;9.068;2022-07-29T06:27:55;8.70;;;3.90;;
4873;SDS011;2451;49.970;9.068;2022-07-29T06:30:21;13.15;;;3.83;;
4873;SDS011;2451;49.970;9.068;2022-07-29T06:32:47;10.25;;;3.75;;
4873;SDS011;2451;49.970;9.068;2022-07-29T06:35:13;8.32;;;3.70;;
4873;SDS011;2451;49.970;9.068;2022-07-29T06:37:38;12.10;;;4.30;;
4873;SDS011;2451;49.970;9.068;2022-07-29T06:40:04;14.88;;;4.45;;
4873;SDS011;2451;49.970;9.068;2022-07-29T06:42:48;13.82;;;3.80;;
4873;SDS011;2451;49.970;9.068;2022-07-29T06:45:14;15.20;;;4.50;;
4873;SDS011;2451;49.970;9.068;2022-07-29T06:47:40;13.75;;;4.38;;
4873;SDS011;2451;49.970;9.068;2022-07-29T06:50:05;10.75;;;3.78;;
4873;SDS011;2451;49.970;9.068;2022-07-29T06:52:31;7.32;;;3.83;;
4873;SDS011;2451;49.970;9.068;2022-07-29T06:54:57;10.23;;;3.78;;
4873;SDS011;2451;49.970;9.068;2022-07-29T06:57:24;12.40;;;3.85;;
4873;SDS011;2451;49.970;9.068;2022-07-29T06:59:49;9.30;;;3.60;;
4873;SDS011;2451;49.970;9.068;2022-07-29T07:02:15;7.25;;;3.45;;
4873;SDS011;2451;49.970;9.068;2022-07-29T07:04:40;9.50;;;3.42;;
4873;SDS011;2451;49.970;9.068;2022-07-29T07:07:06;10.00;;;3.53;;
4873;SDS011;2451;49.970;9.068;2022-07-29T07:09:32;9.75;;;3.97;;
4873;SDS011;2451;49.970;9.068;2022-07-29T07:11:57;9.55;;;3.67;;
4873;SDS011;2451;49.970;9.068;2022-07-29T07:14:23;7.03;;;3.30;;
4873;SDS011;2451;49.970;9.068;2022-07-29T07:16:51;10.43;;;3.35;;
4873;SDS011;2451;49.970;9.068;2022-07-29T07:19:17;10.60;;;3.70;;
4873;SDS011;2451;49.970;9.068;2022-07-29T07:21:44;13.43;;;3.80;;
4873;SDS011;2451;49.970;9.068;2022-07-29T07:24:09;8.75;;;3.88;;
4873;SDS011;2451;49.970;9.068;2022-07-29T07:26:35;11.23;;;3.95;;
4873;SDS011;2451;49.970;9.068;2022-07-29T07:29:00;13.65;;;4.15;;
4873;SDS011;2451;49.970;9.068;2022-07-29T07:31:26;8.18;;;3.58;;
4873;SDS011;2451;49.970;9.068;2022-07-29T07:33:51;8.95;;;3.33;;
4873;SDS011;2451;49.970;9.068;2022-07-29T07:36:18;9.80;;;3.55;;
4873;SDS011;2451;49.970;9.068;2022-07-29T07:38:44;7.78;;;3.45;;
4873;SDS011;2451;49.970;9.068;2022-07-29T07:41:09;11.50;;;3.50;;
4873;SDS011;2451;49.970;9.068;2022-07-29T07:43:35;10.18;;;3.53;;
4873;SDS011;2451;49.970;9.068;2022-07-29T07:46:00;10.60;;;3.72;;
4873;SDS011;2451;49.970;9.068;2022-07-29T07:48:26;8.27;;;3.58;;
4873;SDS011;2451;49.970;9.068;2022-07-29T07:50:51;9.02;;;3.83;;
4873;SDS011;2451;49.970;9.068;2022-07-29T07:53:17;16.70;;;3.80;;
4873;SDS011;2451;49.970;9.068;2022-07-29T07:55:43;11.45;;;3.80;;
4873;SDS011;2451;49.970;9.068;2022-07-29T07:58:09;8.27;;;3.70;;
4873;SDS011;2451;49.970;9.068;2022-07-29T08:00:35;7.35;;;3.70;;
4873;SDS011;2451;49.970;9.068;2022-07-29T08:03:01;10.55;;;3.67;;
4873;SDS011;2451;49.970;9.068;2022-07-29T08:05:27;6.85;;;3.40;;
4873;SDS011;2451;49.970;9.068;2022-07-29T08:07:53;10.80;;;3.35;;
4873;SDS011;2451;49.970;9.068;2022-07-29T08:10:19;8.02;;;3.38;;
4873;SDS011;2451;49.970;9.068;2022-07-29T08:13:06;9.00;;;3.35;;
4873;SDS011;2451;49.970;9.068;2022-07-29T08:15:33;5.95;;;3.20;;
4873;SDS011;2451;49.970;9.068;2022-07-29T08:17:59;8.50;;;2.88;;
4873;SDS011;2451;49.970;9.068;2022-07-29T08:20:25;5.85;;;3.47;;
4873;SDS011;2451;49.970;9.068;2022-07-29T08:22:51;8.10;;;3.00;;
4873;SDS011;2451;49.970;9.068;2022-07-29T08:25:18;5.53;;;3.20;;
4873;SDS011;2451;49.970;9.068;2022-07-29T08:27:45;7.00;;;2.97;;
4873;SDS011;2451;49.970;9.068;2022-07-29T08:30:15;7.70;;;3.25;;
4873;SDS011;2451;49.970;9.068;2022-07-29T08:32:40;16.77;;;3.65;;
4873;SDS011;2451;49.970;9.068;2022-07-29T08:35:07;9.95;;;3.42;;
4873;SDS011;2451;49.970;9.068;2022-07-29T08:37:35;9.35;;;3.30;;
4873;SDS011;2451;49.970;9.068;2022-07-29T08:40:01;6.53;;;3.47;;
4873;SDS011;2451;49.970;9.068;2022-07-29T08:42:27;7.97;;;3.58;;
4873;SDS011;2451;49.970;9.068;2022-07-29T08:44:53;8.35;;;2.97;;
4873;SDS011;2451;49.970;9.068;2022-07-29T08:47:19;7.88;;;3.35;;
4873;SDS011;2451;49.970;9.068;2022-07-29T08:49:45;7.30;;;3.00;;
4873;SDS011;2451;49.970;9.068;2022-07-29T08:52:12;6.32;;;3.15;;
4873;SDS011;2451;49.970;9.068;2022-07-29T08:54:39;8.40;;;3.28;;
4873;SDS011;2451;49.970;9.068;2022-07-29T08:59:33;9.48;;;3.15;;
4873;SDS011;2451;49.970;9.068;2022-07-29T09:02:00;7.35;;;2.90;;
4873;SDS011;2451;49.970;9.068;2022-07-29T09:04:27;6.65;;;3.30;;
4873;SDS011;2451;49.970;9.068;2022-07-29T09:06:59;7.38;;;3.20;;
4873;SDS011;2451;49.970;9.068;2022-07-29T09:09:28;6.25;;;2.70;;
4873;SDS011;2451;49.970;9.068;2022-07-29T09:11:54;6.05;;;2.95;;
4873;SDS011;2451;49.970;9.068;2022-07-29T09:14:20;10.57;;;3.00;;
4873;SDS011;2451;49.970;9.068;2022-07-29T09:19:31;8.50;;;3.35;;
4873;SDS011;2451;49.970;9.068;2022-07-29T09:21:59;14.23;;;3.35;;
4873;SDS011;2451;49.970;9.068;2022-07-29T09:24:40;6.40;;;3.30;;
4873;SDS011;2451;49.970;9.068;2022-07-29T09:27:20;5.32;;;2.90;;
4873;SDS011;2451;49.970;9.068;2022-07-29T09:29:47;6.53;;;2.88;;
4873;SDS011;2451;49.970;9.068;2022-07-29T09:32:22;8.88;;;3.03;;
4873;SDS011;2451;49.970;9.068;2022-07-29T09:34:48;6.47;;;3.17;;
4873;SDS011;2451;49.970;9.068;2022-07-29T09:37:25;7.15;;;2.80;;
4873;SDS011;2451;49.970;9.068;2022-07-29T09:39:51;7.93;;;2.90;;
4873;SDS011;2451;49.970;9.068;2022-07-29T09:42:17;6.13;;;3.00;;
4873;SDS011;2451;49.970;9.068;2022-07-29T09:44:53;7.13;;;3.05;;
4873;SDS011;2451;49.970;9.068;2022-07-29T09:47:19;5.90;;;2.83;;
4873;SDS011;2451;49.970;9.068;2022-07-29T09:49:55;6.55;;;3.20;;
4873;SDS011;2451;49.970;9.068;2022-07-29T09:52:25;17.60;;;3.78;;
4873;SDS011;2451;49.970;9.068;2022-07-29T09:54:52;10.20;;;3.33;;
4873;SDS011;2451;49.970;9.068;2022-07-29T09:57:23;7.82;;;3.00;;
4873;SDS011;2451;49.970;9.068;2022-07-29T10:02:34;7.82;;;3.28;;
4873;SDS011;2451;49.970;9.068;2022-07-29T10:05:03;5.43;;;3.30;;
4873;SDS011;2451;49.970;9.068;2022-07-29T10:07:46;5.07;;;2.72;;
4873;SDS011;2451;49.970;9.068;2022-07-29T10:10:23;6.50;;;3.13;;
4873;SDS011;2451;49.970;9.068;2022-07-29T10:12:49;5.85;;;3.05;;
4873;SDS011;2451;49.970;9.068;2022-07-29T10:15:21;6.85;;;2.80;;
4873;SDS011;2451;49.970;9.068;2022-07-29T10:17:48;5.35;;;2.78;;
4873;SDS011;2451;49.970;9.068;2022-07-29T10:20:15;7.05;;;2.90;;
4873;SDS011;2451;49.970;9.068;2022-07-29T10:22:41;5.35;;;2.70;;
4873;SDS011;2451;49.970;9.068;2022-07-29T10:25:09;7.72;;;2.72;;
4873;SDS011;2451;49.970;9.068;2022-07-29T10:27:36;5.40;;;3.00;;
4873;SDS011;2451;49.970;9.068;2022-07-29T10:30:03;5.07;;;2.70;;
4873;SDS011;2451;49.970;9.068;2022-07-29T10:35:31;7.80;;;2.83;;
4873;SDS011;2451;49.970;9.068;2022-07-29T10:43:49;4.72;;;2.88;;
4873;SDS011;2451;49.970;9.068;2022-07-29T10:46:16;5.85;;;2.75;;
4873;SDS011;2451;49.970;9.068;2022-07-29T10:57:30;5.03;;;2.50;;
4873;SDS011;2451;49.970;9.068;2022-07-29T11:07:38;6.78;;;2.95;;
4873;SDS011;2451;49.970;9.068;2022-07-29T11:23:26;6.47;;;2.67;;
4873;SDS011;2451;49.970;9.068;2022-07-29T11:47:27;6.30;;;2.83;;
4873;SDS011;2451;49.970;9.068;2022-07-29T11:49:54;6.13;;;3.10;;
4873;SDS011;2451;49.970;9.068;2022-07-29T11:52:22;5.78;;;2.90;;
4873;SDS011;2451;49.970;9.068;2022-07-29T11:54:48;4.78;;;2.60;;
4873;SDS011;2451;49.970;9.068;2022-07-29T11:57:17;6.18;;;2.67;;
4873;SDS011;2451;49.970;9.068;2022-07-29T11:59:44;5.10;;;3.25;;
4873;SDS011;2451;49.970;9.068;2022-07-29T12:02:11;8.87;;;2.90;;
4873;SDS011;2451;49.970;9.068;2022-07-29T12:04:54;7.60;;;3.10;;
4873;SDS011;2451;49.970;9.068;2022-07-29T12:07:30;5.20;;;2.90;;
4873;SDS011;2451;49.970;9.068;2022-07-29T12:09:57;5.57;;;3.00;;
4873;SDS011;2451;49.970;9.068;2022-07-29T12:12:23;5.53;;;2.83;;
4873;SDS011;2451;49.970;9.068;2022-07-29T12:14:49;6.95;;;3.15;;
4873;SDS011;2451;49.970;9.068;2022-07-29T12:17:34;6.50;;;2.92;;
4873;SDS011;2451;49.970;9.068;2022-07-29T12:20:03;9.50;;;2.70;;
4873;SDS011;2451;49.970;9.068;2022-07-29T12:22:37;4.07;;;2.78;;
4873;SDS011;2451;49.970;9.068;2022-07-29T12:27:32;4.53;;;2.65;;
4873;SDS011;2451;49.970;9.068;2022-07-29T12:30:01;7.80;;;3.00;;
4873;SDS011;2451;49.970;9.068;2022-07-29T12:32:32;6.10;;;3.20;;
4873;SDS011;2451;49.970;9.068;2022-07-29T12:35:02;8.13;;;2.95;;
4873;SDS011;2451;49.970;9.068;2022-07-29T12:37:31;5.78;;;2.83;;
4873;SDS011;2451;49.970;9.068;2022-07-29T12:39:58;4.28;;;3.33;;
4873;SDS011;2451;49.970;9.068;2022-07-29T12:42:24;4.28;;;3.08;;
4873;SDS011;2451;49.970;9.068;2022-07-29T12:44:50;3.58;;;2.70;;
4873;SDS011;2451;49.970;9.068;2022-07-29T12:47:16;6.43;;;3.03;;
4873;SDS011;2451;49.970;9.068;2022-07-29T12:49:43;3.53;;;2.70;;
4873;SDS011;2451;49.970;9.068;2022-07-29T12:54:58;4.18;;;2.97;;
4873;SDS011;2451;49.970;9.068;2022-07-29T12:57:25;6.18;;;3.38;;
4873;SDS011;2451;49.970;9.068;2022-07-29T13:02:35;7.90;;;2.92;;
4873;SDS011;2451;49.970;9.068;2022-07-29T13:05:02;7.18;;;3.40;;
4873;SDS011;2451;49.970;9.068;2022-07-29T13:07:29;9.80;;;2.97;;
4873;SDS011;2451;49.970;9.068;2022-07-29T13:10:13;5.78;;;2.90;;
4873;SDS011;2451;49.970;9.068;2022-07-29T13:15:29;4.85;;;3.33;;
4873;SDS011;2451;49.970;9.068;2022-07-29T13:17:55;7.30;;;3.30;;
4873;SDS011;2451;49.970;9.068;2022-07-29T13:20:23;8.93;;;3.50;;
4873;SDS011;2451;49.970;9.068;2022-07-29T13:22:50;9.60;;;3.40;;
4873;SDS011;2451;49.970;9.068;2022-07-29T13:25:23;8.23;;;3.30;;
4873;SDS011;2451;49.970;9.068;2022-07-29T13:27:49;4.60;;;3.28;;
4873;SDS011;2451;49.970;9.068;2022-07-29T13:30:15;7.82;;;3.40;;
4873;SDS011;2451;49.970;9.068;2022-07-29T13:32:41;5.55;;;3.10;;
4873;SDS011;2451;49.970;9.068;2022-07-29T13:35:07;6.82;;;2.97;;
4873;SDS011;2451;49.970;9.068;2022-07-29T13:37:33;6.03;;;3.03;;
4873;SDS011;2451;49.970;9.068;2022-07-29T13:40:03;7.60;;;3.30;;
4873;SDS011;2451;49.970;9.068;2022-07-29T13:42:29;9.98;;;2.90;;
4873;SDS011;2451;49.970;9.068;2022-07-29T13:44:55;9.10;;;3.60;;
4873;SDS011;2451;49.970;9.068;2022-07-29T13:47:20;5.43;;;3.03;;
4873;SDS011;2451;49.970;9.068;2022-07-29T13:49:47;7.18;;;3.35;;
4873;SDS011;2451;49.970;9.068;2022-07-29T13:52:13;5.25;;;3.10;;
4873;SDS011;2451;49.970;9.068;2022-07-29T13:54:38;6.60;;;3.17;;
4873;SDS011;2451;49.970;9.068;2022-07-29T13:57:04;9.07;;;3.10;;
4873;SDS011;2451;49.970;9.068;2022-07-29T13:59:30;4.13;;;3.45;;
4873;SDS011;2451;49.970;9.068;2022-07-29T14:01:56;7.35;;;3.13;;
4873;SDS011;2451;49.970;9.068;2022-07-29T14:04:22;8.05;;;3.30;;
4873;SDS011;2451;49.970;9.068;2022-07-29T14:06:50;5.75;;;3.60;;
4873;SDS011;2451;49.970;9.068;2022-07-29T14:09:16;6.85;;;3.65;;
4873;SDS011;2451;49.970;9.068;2022-07-29T14:11:42;12.52;;;4.53;;
4873;SDS011;2451;49.970;9.068;2022-07-29T14:14:08;8.65;;;4.30;;
4873;SDS011;2451;49.970;9.068;2022-07-29T14:16:35;11.48;;;5.13;;
4873;SDS011;2451;49.970;9.068;2022-07-29T14:19:01;7.20;;;4.03;;
4873;SDS011;2451;49.970;9.068;2022-07-29T14:21:26;6.78;;;3.70;;
4873;SDS011;2451;49.970;9.068;2022-07-29T14:23:52;6.93;;;3.88;;
4873;SDS011;2451;49.970;9.068;2022-07-29T14:26:19;6.65;;;4.30;;
4873;SDS011;2451;49.970;9.068;2022-07-29T14:28:45;6.75;;;4.28;;
4873;SDS011;2451;49.970;9.068;2022-07-29T14:31:10;8.57;;;4.50;;
4873;SDS011;2451;49.970;9.068;2022-07-29T14:33:36;9.00;;;4.50;;
4873;SDS011;2451;49.970;9.068;2022-07-29T14:36:02;5.85;;;4.20;;
4873;SDS011;2451;49.970;9.068;2022-07-29T14:38:28;10.30;;;4.80;;
4873;SDS011;2451;49.970;9.068;2022-07-29T14:40:53;8.93;;;4.30;;
4873;SDS011;2451;49.970;9.068;2022-07-29T14:43:19;6.28;;;4.68;;
4873;SDS011;2451;49.970;9.068;2022-07-29T14:45:44;7.03;;;4.80;;
4873;SDS011;2451;49.970;9.068;2022-07-29T14:48:10;7.88;;;4.50;;
4873;SDS011;2451;49.970;9.068;2022-07-29T14:50:36;8.93;;;4.47;;
4873;SDS011;2451;49.970;9.068;2022-07-29T14:53:02;7.53;;;4.90;;
4873;SDS011;2451;49.970;9.068;2022-07-29T14:55:28;8.15;;;4.75;;
4873;SDS011;2451;49.970;9.068;2022-07-29T14:57:53;8.70;;;5.68;;
4873;SDS011;2451;49.970;9.068;2022-07-29T15:00:19;10.85;;;6.10;;
4873;SDS011;2451;49.970;9.068;2022-07-29T15:02:45;11.77;;;6.90;;
4873;SDS011;2451;49.970;9.068;2022-07-29T15:05:12;8.30;;;6.38;;
4873;SDS011;2451;49.970;9.068;2022-07-29T15:07:37;10.95;;;7.00;;
4873;SDS011;2451;49.970;9.068;2022-07-29T15:10:03;10.05;;;7.35;;
4873;SDS011;2451;49.970;9.068;2022-07-29T15:12:30;11.77;;;7.65;;
4873;SDS011;2451;49.970;9.068;2022-07-29T15:14:56;11.95;;;7.22;;
4873;SDS011;2451;49.970;9.068;2022-07-29T15:17:22;10.20;;;7.15;;
4873;SDS011;2451;49.970;9.068;2022-07-29T15:19:47;8.65;;;7.20;;
4873;SDS011;2451;49.970;9.068;2022-07-29T15:22:13;11.88;;;7.55;;
4873;SDS011;2451;49.970;9.068;2022-07-29T15:24:39;8.20;;;7.05;;
4873;SDS011;2451;49.970;9.068;2022-07-29T15:27:04;9.55;;;7.07;;
4873;SDS011;2451;49.970;9.068;2022-07-29T15:29:30;11.63;;;7.63;;
4873;SDS011;2451;49.970;9.068;2022-07-29T15:31:55;10.38;;;8.10;;
4873;SDS011;2451;49.970;9.068;2022-07-29T15:34:21;13.20;;;8.27;;
4873;SDS011;2451;49.970;9.068;2022-07-29T15:36:48;11.88;;;7.88;;
4873;SDS011;2451;49.970;9.068;2022-07-29T15:39:17;11.00;;;8.32;;
4873;SDS011;2451;49.970;9.068;2022-07-29T15:41:43;10.88;;;8.73;;
4873;SDS011;2451;49.970;9.068;2022-07-29T15:44:08;11.32;;;7.95;;
4873;SDS011;2451;49.970;9.068;2022-07-29T15:46:34;9.77;;;7.95;;
4873;SDS011;2451;49.970;9.068;2022-07-29T15:49:18;13.23;;;8.05;;
4873;SDS011;2451;49.970;9.068;2022-07-29T15:51:43;12.25;;;8.02;;
4873;SDS011;2451;49.970;9.068;2022-07-29T15:54:09;10.50;;;7.13;;
4873;SDS011;2451;49.970;9.068;2022-07-29T15:56:35;8.43;;;7.13;;
4873;SDS011;2451;49.970;9.068;2022-07-29T15:59:00;10.32;;;7.35;;
4873;SDS011;2451;49.970;9.068;2022-07-29T16:01:26;10.55;;;7.65;;
4873;SDS011;2451;49.970;9.068;2022-07-29T16:03:52;10.18;;;7.50;;
4873;SDS011;2451;49.970;9.068;2022-07-29T16:06:17;12.93;;;7.57;;
4873;SDS011;2451;49.970;9.068;2022-07-29T16:08:43;9.40;;;7.75;;
4873;SDS011;2451;49.970;9.068;2022-07-29T16:11:09;11.18;;;7.50;;
4873;SDS011;2451;49.970;9.068;2022-07-29T16:13:34;11.15;;;7.72;;
4873;SDS011;2451;49.970;9.068;2022-07-29T16:16:00;10.43;;;8.25;;
4873;SDS011;2451;49.970;9.068;2022-07-29T16:18:25;13.65;;;8.77;;
4873;SDS011;2451;49.970;9.068;2022-07-29T16:20:51;9.93;;;8.18;;
4873;SDS011;2451;49.970;9.068;2022-07-29T16:23:16;10.35;;;6.57;;
4873;SDS011;2451;49.970;9.068;2022-07-29T16:25:42;9.30;;;7.18;;
4873;SDS011;2451;49.970;9.068;2022-07-29T16:28:08;10.65;;;7.40;;
4873;SDS011;2451;49.970;9.068;2022-07-29T16:30:34;10.88;;;7.60;;
4873;SDS011;2451;49.970;9.068;2022-07-29T16:33:00;12.00;;;7.32;;
4873;SDS011;2451;49.970;9.068;2022-07-29T16:35:26;9.68;;;7.38;;
4873;SDS011;2451;49.970;9.068;2022-07-29T16:37:52;11.55;;;7.38;;
4873;SDS011;2451;49.970;9.068;2022-07-29T16:40:17;11.00;;;8.10;;
4873;SDS011;2451;49.970;9.068;2022-07-29T16:42:43;27.60;;;8.80;;
4873;SDS011;2451;49.970;9.068;2022-07-29T16:45:08;11.95;;;6.80;;
4873;SDS011;2451;49.970;9.068;2022-07-29T16:47:34;12.48;;;7.63;;
4873;SDS011;2451;49.970;9.068;2022-07-29T16:49:59;9.93;;;7.68;;
4873;SDS011;2451;49.970;9.068;2022-07-29T16:52:25;11.63;;;7.18;;
4873;SDS011;2451;49.970;9.068;2022-07-29T16:54:50;10.85;;;7.65;;
4873;SDS011;2451;49.970;9.068;2022-07-29T16:57:16;10.30;;;7.10;;
4873;SDS011;2451;49.970;9.068;2022-07-29T16:59:42;11.68;;;6.50;;